Time,TemperatureF,DewpointF,PressureIn,WindDirection,WindDirectionDegrees,WindSpeedMPH,WindSpeedGustMPH,Humidity,HourlyPrecipIn,Conditions,Clouds,dailyrainin,SolarRadiationWatts/m^2,SoftwareType,DateUTC
2013-02-24 00:00:00,30.1,22.2,30.01,ENE,78,0.0,0.0,72,0.00,,CLR,0.01,0.00,VWS V14.01,2013-02-24 06:00:00,
2013-02-24 00:05:00,30.1,22.2,30.01,ENE,78,0.0,0.0,72,0.00,,CLR,0.00,0.00,VWS V14.01,2013-02-24 06:05:00,
2013-02-24 00:10:00,30.0,22.1,30.01,ENE,78,0.0,0.0,72,0.00,,CLR,0.00,0.00,VWS V14.01,2013-02-24 06:10:00,
2013-02-24 00:15:00,30.0,22.4,30.01,ENE,78,0.0,0.0,73,0.00,,CLR,0.00,0.00,VWS V14.01,2013-02-24 06:15:00,
2013-02-24 00:20:00,29.8,22.2,30.01,ENE,78,0.0,0.0,73,0.00,,CLR,0.00,0.00,VWS V14.01,2013-02-24 06:20:00,
2013-02-24 00:25:00,29.7,22.1,30.01,ENE,78,0.0,0.0,73,0.00,,CLR,0.00,0.00,VWS V14.01,2013-02-24 06:25:00,
2013-02-24 00:30:00,29.7,22.1,30.01,ENE,78,0.0,0.0,73,0.00,,CLR,0.00,0.00,VWS V14.01,2013-02-24 06:30:00,
2013-02-24 00:35:00,29.5,21.9,30.01,ENE,78,0.0,0.0,73,0.00,,CLR,0.00,0.00,VWS V14.01,2013-02-24 06:35:00,
2013-02-24 00:40:00,29.4,21.8,30.01,ENE,78,0.0,0.0,73,0.00,,CLR,0.00,0.00,VWS V14.01,2013-02-24 06:40:00,
2013-02-24 00:45:00,29.2,21.6,30.01,ENE,78,0.0,0.0,73,0.00,,CLR,0.00,0.00,VWS V14.01,2013-02-24 06:45:00,
2013-02-24 00:50:00,29.2,21.6,30.01,ENE,78,0.0,0.0,73,0.00,,CLR,0.00,0.00,VWS V14.01,2013-02-24 06:50:00,
2013-02-24 00:55:00,29.1,21.5,30.01,ENE,78,0.0,0.0,73,0.00,,CLR,0.00,0.00,VWS V14.01,2013-02-24 06:55:00,
2013-02-24 01:00:00,28.9,21.4,30.01,ENE,78,0.0,0.0,73,0.00,,CLR,0.00,0.00,VWS V14.01,2013-02-24 07:00:00,
2013-02-24 01:05:00,28.8,21.6,30.01,ENE,78,0.0,0.0,74,0.00,,CLR,0.00,0.00,VWS V14.01,2013-02-24 07:05:00,
2013-02-24 01:10:00,28.8,21.6,30.01,ENE,78,0.0,0.0,74,0.00,,CLR,0.00,0.00,VWS V14.01,2013-02-24 07:10:00,
2013-02-24 01:15:00,28.6,21.7,30.00,ENE,78,0.0,0.0,75,0.00,,CLR,0.00,0.00,VWS V14.01,2013-02-24 07:15:00,
2013-02-24 01:20:00,28.6,22.0,30.00,ENE,78,0.0,0.0,76,0.00,,CLR,0.00,0.00,VWS V14.01,2013-02-24 07:20:00,
2013-02-24 01:25:00,28.6,22.0,30.00,ENE,78,0.0,0.0,76,0.00,,CLR,0.00,0.00,VWS V14.01,2013-02-24 07:25:00,
2013-02-24 01:30:00,28.8,22.5,29.99,ENE,78,0.0,0.0,77,0.00,,CLR,0.00,0.00,VWS V14.01,2013-02-24 07:30:00,
2013-02-24 01:35:00,29.1,22.8,29.99,ENE,78,0.0,0.0,77,0.00,,CLR,0.00,0.00,VWS V14.01,2013-02-24 07:35:00,
2013-02-24 01:40:00,29.5,23.2,29.99,ENE,78,0.0,0.0,77,0.00,,CLR,0.00,0.00,VWS V14.01,2013-02-24 07:40:00,
2013-02-24 01:45:00,29.8,23.5,29.98,ENE,78,0.0,1.0,77,0.00,,CLR,0.00,0.00,VWS V14.01,2013-02-24 07:45:00,
2013-02-24 01:50:00,30.1,23.5,29.98,East,80,1.0,3.0,76,0.00,,CLR,0.00,0.00,VWS V14.01,2013-02-24 07:50:00,
2013-02-24 01:55:00,30.4,23.8,29.98,East,80,0.0,2.0,76,0.00,,CLR,0.00,0.00,VWS V14.01,2013-02-24 07:55:00,
2013-02-24 02:00:00,30.9,23.9,29.98,East,80,0.0,0.0,75,0.00,,CLR,0.00,0.00,VWS V14.01,2013-02-24 08:00:00,
2013-02-24 02:05:00,31.0,23.7,29.98,East,80,0.0,0.0,74,0.00,,CLR,0.00,0.00,VWS V14.01,2013-02-24 08:05:00,
2013-02-24 02:10:00,31.3,24.0,29.98,East,80,0.0,0.0,74,0.00,,CLR,0.00,0.00,VWS V14.01,2013-02-24 08:10:00,
2013-02-24 02:15:00,31.4,23.8,29.98,East,80,0.0,0.0,73,0.00,,CLR,0.00,0.00,VWS V14.01,2013-02-24 08:15:00,
2013-02-24 02:20:00,31.4,23.8,29.98,East,80,0.0,0.0,73,0.00,,CLR,0.00,0.00,VWS V14.01,2013-02-24 08:20:00,
2013-02-24 02:25:00,31.6,24.0,29.98,East,80,0.0,0.0,73,0.00,,CLR,0.00,0.00,VWS V14.01,2013-02-24 08:25:00,
2013-02-24 02:30:00,31.6,24.0,29.98,East,80,0.0,0.0,73,0.00,,CLR,0.00,0.00,VWS V14.01,2013-02-24 08:30:00,
2013-02-24 02:35:00,31.4,23.8,29.98,East,80,0.0,0.0,73,0.00,,CLR,0.00,0.00,VWS V14.01,2013-02-24 08:35:00,
2013-02-24 02:40:00,31.4,23.8,29.98,East,80,0.0,0.0,73,0.00,,CLR,0.00,0.00,VWS V14.01,2013-02-24 08:40:00,
2013-02-24 02:45:00,31.3,23.7,29.97,East,80,0.0,0.0,73,0.00,,CLR,0.00,0.00,VWS V14.01,2013-02-24 08:45:00,
2013-02-24 02:50:00,31.3,23.7,29.97,East,80,0.0,0.0,73,0.00,,CLR,0.00,0.00,VWS V14.01,2013-02-24 08:50:00,
2013-02-24 02:55:00,31.2,23.2,29.97,East,80,0.0,0.0,72,0.00,,CLR,0.00,0.00,VWS V14.01,2013-02-24 08:55:00,
2013-02-24 03:00:00,31.2,23.2,29.96,East,80,0.0,0.0,72,0.00,,CLR,0.00,0.00,VWS V14.01,2013-02-24 09:00:00,
2013-02-24 03:05:00,31.0,23.0,29.96,East,80,0.0,0.0,72,0.00,,CLR,0.00,0.00,VWS V14.01,2013-02-24 09:05:00,
2013-02-24 03:10:00,30.9,23.3,29.96,East,80,0.0,0.0,73,0.00,,CLR,0.00,0.00,VWS V14.01,2013-02-24 09:10:00,
2013-02-24 03:15:00,30.7,23.1,29.96,East,80,0.0,0.0,73,0.00,,CLR,0.00,0.00,VWS V14.01,2013-02-24 09:15:00,
2013-02-24 03:20:00,30.6,23.0,29.96,East,80,0.0,0.0,73,0.00,,CLR,0.00,0.00,VWS V14.01,2013-02-24 09:20:00,
2013-02-24 03:25:00,30.4,22.8,29.96,East,80,0.0,0.0,73,0.00,,CLR,0.00,0.00,VWS V14.01,2013-02-24 09:25:00,
2013-02-24 03:30:00,30.3,23.0,29.96,East,80,0.0,0.0,74,0.00,,CLR,0.00,0.00,VWS V14.01,2013-02-24 09:30:00,
2013-02-24 03:35:00,30.1,22.5,29.96,East,80,0.0,0.0,73,0.00,,CLR,0.00,0.00,VWS V14.01,2013-02-24 09:35:00,
2013-02-24 03:40:00,30.0,22.4,29.96,East,80,0.0,0.0,73,0.00,,CLR,0.00,0.00,VWS V14.01,2013-02-24 09:40:00,
2013-02-24 03:45:00,29.8,22.2,29.96,East,80,0.0,0.0,73,0.00,,CLR,0.00,0.00,VWS V14.01,2013-02-24 09:45:00,
2013-02-24 03:50:00,29.7,22.1,29.96,East,80,0.0,0.0,73,0.00,,CLR,0.00,0.00,VWS V14.01,2013-02-24 09:50:00,
2013-02-24 03:55:00,29.5,21.9,29.96,East,80,0.0,0.0,73,0.00,,CLR,0.00,0.00,VWS V14.01,2013-02-24 09:55:00,
2013-02-24 04:00:00,29.4,22.1,29.96,East,80,0.0,0.0,74,0.00,,CLR,0.00,0.00,VWS V14.01,2013-02-24 10:00:00,
2013-02-24 04:05:00,29.2,22.0,29.96,East,80,0.0,0.0,74,0.00,,CLR,0.00,0.00,VWS V14.01,2013-02-24 10:05:00,
2013-02-24 04:10:00,29.2,22.6,29.96,East,80,0.0,0.0,76,0.00,,CLR,0.00,0.00,VWS V14.01,2013-02-24 10:10:00,
2013-02-24 04:15:00,29.2,22.9,29.95,East,81,0.0,1.0,77,0.00,,CLR,0.00,0.00,VWS V14.01,2013-02-24 10:15:00,
2013-02-24 04:20:00,29.4,23.4,29.95,East,82,1.0,2.0,78,0.00,,CLR,0.00,0.00,VWS V14.01,2013-02-24 10:20:00,
2013-02-24 04:25:00,29.7,23.7,29.95,ESE,109,0.0,5.0,78,0.00,,CLR,0.00,0.00,VWS V14.01,2013-02-24 10:25:00,
2013-02-24 04:30:00,30.1,24.1,29.94,SE,126,1.0,6.0,78,0.00,,CLR,0.00,0.00,VWS V14.01,2013-02-24 10:30:00,
2013-02-24 04:35:00,30.4,24.4,29.94,SE,129,1.0,6.0,78,0.00,,CLR,0.00,0.00,VWS V14.01,2013-02-24 10:35:00,
2013-02-24 04:40:00,30.7,24.7,29.94,SE,133,1.0,5.0,78,0.00,,CLR,0.00,0.00,VWS V14.01,2013-02-24 10:40:00,
2013-02-24 04:45:00,31.0,24.6,29.94,SE,138,1.0,6.0,77,0.00,,CLR,0.00,0.00,VWS V14.01,2013-02-24 10:45:00,
2013-02-24 04:50:00,31.2,24.8,29.94,SE,137,0.0,4.0,77,0.00,,CLR,0.00,0.00,VWS V14.01,2013-02-24 10:50:00,
2013-02-24 04:55:00,31.2,24.8,29.94,SE,135,0.0,4.0,77,0.00,,CLR,0.00,0.00,VWS V14.01,2013-02-24 10:55:00,
2013-02-24 05:00:00,31.3,24.6,29.94,SE,135,0.0,3.0,76,0.00,,CLR,0.00,0.00,VWS V14.01,2013-02-24 11:00:00,
2013-02-24 05:05:00,31.3,24.6,29.94,SE,135,2.0,3.0,76,0.00,,CLR,0.00,0.00,VWS V14.01,2013-02-24 11:05:00,
2013-02-24 05:10:00,31.3,24.6,29.94,SE,135,0.0,4.0,76,0.00,,CLR,0.00,0.00,VWS V14.01,2013-02-24 11:10:00,
2013-02-24 05:15:00,31.2,24.5,29.94,SE,135,1.0,3.0,76,0.00,,CLR,0.00,0.00,VWS V14.01,2013-02-24 11:15:00,
2013-02-24 05:20:00,31.2,24.5,29.94,SE,135,0.0,2.0,76,0.00,,CLR,0.00,0.00,VWS V14.01,2013-02-24 11:20:00,
2013-02-24 05:25:00,31.2,24.5,29.94,SE,135,1.0,2.0,76,0.00,,CLR,0.00,0.00,VWS V14.01,2013-02-24 11:25:00,
2013-02-24 05:30:00,31.0,24.3,29.96,SE,136,1.0,3.0,76,0.00,,CLR,0.00,0.00,VWS V14.01,2013-02-24 11:30:00,
2013-02-24 05:35:00,31.0,24.3,29.96,SE,136,1.0,3.0,76,0.00,,CLR,0.00,0.00,VWS V14.01,2013-02-24 11:35:00,
2013-02-24 05:40:00,31.0,24.3,29.96,SE,136,0.0,1.0,76,0.00,,CLR,0.00,0.00,VWS V14.01,2013-02-24 11:40:00,
2013-02-24 05:45:00,30.9,24.5,29.97,SE,136,0.0,0.0,77,0.00,,CLR,0.00,0.00,VWS V14.01,2013-02-24 11:45:00,
2013-02-24 05:50:00,30.9,24.5,29.97,SE,136,0.0,0.0,77,0.00,,CLR,0.00,0.00,VWS V14.01,2013-02-24 11:50:00,
2013-02-24 05:55:00,30.7,24.4,29.97,SE,136,0.0,0.0,77,0.00,,CLR,0.00,0.00,VWS V14.01,2013-02-24 11:55:00,
2013-02-24 06:00:00,30.6,24.3,29.97,SE,136,0.0,0.0,77,0.00,,CLR,0.00,0.00,VWS V14.01,2013-02-24 12:00:00,
2013-02-24 06:05:00,30.6,24.3,29.97,SE,136,0.0,0.0,77,0.00,,CLR,0.00,0.00,VWS V14.01,2013-02-24 12:05:00,
2013-02-24 06:10:00,30.4,24.1,29.97,SE,136,0.0,0.0,77,0.00,,CLR,0.00,0.00,VWS V14.01,2013-02-24 12:10:00,
2013-02-24 06:15:00,30.3,24.0,29.96,SE,136,0.0,0.0,77,0.00,,CLR,0.00,0.00,VWS V14.01,2013-02-24 12:15:00,
2013-02-24 06:20:00,30.1,23.8,29.96,SE,136,0.0,0.0,77,0.00,,CLR,0.00,0.00,VWS V14.01,2013-02-24 12:20:00,
2013-02-24 06:25:00,30.0,23.7,29.96,SE,136,0.0,0.0,77,0.00,,CLR,0.00,0.00,VWS V14.01,2013-02-24 12:25:00,
2013-02-24 06:30:00,30.0,23.7,29.96,SE,136,0.0,0.0,77,0.00,,CLR,0.00,0.00,VWS V14.01,2013-02-24 12:30:00,
2013-02-24 06:35:00,29.8,23.5,29.96,SE,136,0.0,0.0,77,0.00,,CLR,0.00,0.00,VWS V14.01,2013-02-24 12:35:00,
2013-02-24 06:40:00,29.7,23.4,29.96,SE,136,0.0,0.0,77,0.00,,CLR,0.00,0.00,VWS V14.01,2013-02-24 12:40:00,
2013-02-24 06:45:00,29.5,23.2,29.96,SE,136,0.0,0.0,77,0.00,,CLR,0.00,0.00,VWS V14.01,2013-02-24 12:45:00,
2013-02-24 06:50:00,29.4,23.1,29.96,SE,136,0.0,0.0,77,0.00,,CLR,0.00,0.00,VWS V14.01,2013-02-24 12:50:00,
2013-02-24 06:55:00,29.4,23.4,29.96,SE,136,0.0,0.0,78,0.00,,CLR,0.00,0.00,VWS V14.01,2013-02-24 12:55:00,
2013-02-24 07:00:00,29.2,23.2,29.95,SE,136,0.0,0.0,78,0.00,,CLR,0.00,5.75,VWS V14.01,2013-02-24 13:00:00,
2013-02-24 07:05:00,29.2,23.2,29.95,SE,136,0.0,0.0,78,0.00,,CLR,0.00,8.05,VWS V14.01,2013-02-24 13:05:00,
2013-02-24 07:10:00,29.4,23.7,29.95,SE,136,0.0,0.0,79,0.00,,CLR,0.00,12.65,VWS V14.01,2013-02-24 13:10:00,
2013-02-24 07:15:00,29.4,23.7,29.96,SE,136,0.0,0.0,79,0.00,,CLR,0.00,16.10,VWS V14.01,2013-02-24 13:15:00,
2013-02-24 07:20:00,29.5,24.1,29.96,SE,136,0.0,0.0,80,0.00,,CLR,0.00,20.70,VWS V14.01,2013-02-24 13:20:00,
2013-02-24 07:25:00,29.7,24.3,29.96,SE,138,1.0,2.0,80,0.00,,CLR,0.00,24.15,VWS V14.01,2013-02-24 13:25:00,
2013-02-24 07:30:00,29.8,24.4,29.97,SE,138,0.0,2.0,80,0.00,,CLR,0.00,28.75,VWS V14.01,2013-02-24 13:30:00,
2013-02-24 07:35:00,30.0,24.6,29.97,SE,138,1.0,3.0,80,0.00,,CLR,0.00,29.90,VWS V14.01,2013-02-24 13:35:00,
2013-02-24 07:40:00,30.1,25.0,29.97,SE,138,2.0,3.0,81,0.00,,CLR,0.00,32.20,VWS V14.01,2013-02-24 13:40:00,
2013-02-24 07:45:00,30.3,25.2,29.98,SE,138,0.0,3.0,81,0.00,,CLR,0.00,36.80,VWS V14.01,2013-02-24 13:45:00,
2013-02-24 07:50:00,30.6,25.5,29.98,SE,138,0.0,0.0,81,0.00,,CLR,0.00,37.95,VWS V14.01,2013-02-24 13:50:00,
2013-02-24 07:55:00,30.7,25.6,29.98,SE,138,1.0,3.0,81,0.00,,CLR,0.00,40.25,VWS V14.01,2013-02-24 13:55:00,
2013-02-24 08:00:00,31.0,25.9,29.98,SE,139,3.0,4.0,81,0.00,,CLR,0.00,157.55,VWS V14.01,2013-02-24 14:00:00,
2013-02-24 08:05:00,32.2,27.0,29.98,SE,145,0.0,5.0,81,0.00,,CLR,0.00,175.95,VWS V14.01,2013-02-24 14:05:00,
2013-02-24 08:10:00,33.4,27.0,29.98,SSE,147,2.0,6.0,77,0.00,,CLR,0.00,194.35,VWS V14.01,2013-02-24 14:10:00,
2013-02-24 08:15:00,34.1,27.3,29.99,SSE,155,2.0,6.0,76,0.00,,CLR,0.00,212.75,VWS V14.01,2013-02-24 14:15:00,
2013-02-24 08:20:00,35.0,27.9,29.99,SSE,157,3.0,5.0,75,0.00,,CLR,0.00,232.30,VWS V14.01,2013-02-24 14:20:00,
2013-02-24 08:25:00,35.7,28.2,29.99,SSE,163,0.0,8.0,74,0.00,,CLR,0.00,246.10,VWS V14.01,2013-02-24 14:25:00,
2013-02-24 08:30:00,36.3,28.5,29.99,SSE,164,5.0,9.0,73,0.00,,CLR,0.00,266.80,VWS V14.01,2013-02-24 14:30:00,
2013-02-24 08:35:00,36.8,29.0,29.99,South,171,1.0,12.0,73,0.00,,CLR,0.00,282.90,VWS V14.01,2013-02-24 14:35:00,
2013-02-24 08:40:00,37.1,28.9,29.99,SSE,159,3.0,13.0,72,0.00,,CLR,0.00,301.30,VWS V14.01,2013-02-24 14:40:00,
2013-02-24 08:45:00,37.4,28.9,29.99,SSE,164,3.0,7.0,71,0.00,,CLR,0.00,319.70,VWS V14.01,2013-02-24 14:45:00,
2013-02-24 08:50:00,37.8,28.9,29.99,SE,141,2.0,9.0,70,0.00,,CLR,0.00,338.10,VWS V14.01,2013-02-24 14:50:00,
2013-02-24 08:55:00,38.1,29.2,29.99,SSE,153,2.0,13.0,70,0.00,,CLR,0.00,355.35,VWS V14.01,2013-02-24 14:55:00,
2013-02-24 09:00:00,39.0,29.7,29.99,SSE,161,6.0,12.0,69,0.00,,CLR,0.00,370.30,VWS V14.01,2013-02-24 15:00:00,
2013-02-24 09:05:00,39.3,30.0,29.99,SE,145,6.0,12.0,69,0.00,,CLR,0.00,388.70,VWS V14.01,2013-02-24 15:05:00,
2013-02-24 09:10:00,39.8,30.5,29.99,SSE,165,2.0,6.0,69,0.00,,CLR,0.00,405.95,VWS V14.01,2013-02-24 15:10:00,
2013-02-24 09:15:00,40.6,30.9,29.99,SSE,167,15.0,15.0,68,0.00,,CLR,0.00,422.05,VWS V14.01,2013-02-24 15:15:00,
2013-02-24 09:20:00,40.6,31.2,29.99,SSE,163,11.0,15.0,69,0.00,,CLR,0.00,440.45,VWS V14.01,2013-02-24 15:20:00,
2013-02-24 09:25:00,41.0,30.9,29.99,SSE,159,6.0,12.0,67,0.00,,CLR,0.00,456.55,VWS V14.01,2013-02-24 15:25:00,
2013-02-24 09:30:00,41.1,31.0,29.99,SSE,151,5.0,9.0,67,0.00,,CLR,0.00,471.50,VWS V14.01,2013-02-24 15:30:00,
2013-02-24 09:35:00,42.1,32.0,29.99,SSE,163,9.0,11.0,67,0.00,,CLR,0.00,485.30,VWS V14.01,2013-02-24 15:35:00,
2013-02-24 09:40:00,42.7,31.8,29.99,SSE,157,6.0,13.0,65,0.00,,CLR,0.00,501.40,VWS V14.01,2013-02-24 15:40:00,
2013-02-24 09:45:00,43.6,32.2,29.99,SSE,155,7.0,12.0,64,0.00,,CLR,0.00,515.20,VWS V14.01,2013-02-24 15:45:00,
2013-02-24 09:50:00,43.9,32.5,29.99,South,171,10.0,16.0,64,0.00,,CLR,0.00,530.15,VWS V14.01,2013-02-24 15:50:00,
2013-02-24 09:55:00,43.9,32.5,29.99,SE,137,5.0,15.0,64,0.00,,CLR,0.00,543.95,VWS V14.01,2013-02-24 15:55:00,
2013-02-24 10:00:00,44.2,32.8,29.99,SSE,160,4.0,13.0,64,0.00,,CLR,0.00,557.75,VWS V14.01,2013-02-24 16:00:00,
2013-02-24 10:05:00,44.5,33.1,29.99,SSE,163,0.0,16.0,64,0.00,,CLR,0.00,568.10,VWS V14.01,2013-02-24 16:05:00,
2013-02-24 10:10:00,44.9,33.1,29.99,SSE,167,6.0,12.0,63,0.00,,CLR,0.00,584.20,VWS V14.01,2013-02-24 16:10:00,
2013-02-24 10:15:00,45.0,33.2,29.98,South,175,3.0,16.0,63,0.00,,CLR,0.00,596.85,VWS V14.01,2013-02-24 16:15:00,
2013-02-24 10:20:00,46.2,34.3,29.98,SE,132,4.0,11.0,63,0.00,,CLR,0.00,608.35,VWS V14.01,2013-02-24 16:20:00,
2013-02-24 10:25:00,46.1,33.8,29.98,SSE,163,6.0,11.0,62,0.00,,CLR,0.00,622.15,VWS V14.01,2013-02-24 16:25:00,
2013-02-24 10:30:00,46.7,34.4,29.97,SSW,194,13.0,14.0,62,0.00,,CLR,0.00,634.80,VWS V14.01,2013-02-24 16:30:00,
2013-02-24 10:35:00,47.3,34.1,29.97,South,170,1.0,12.0,60,0.00,,CLR,0.00,648.60,VWS V14.01,2013-02-24 16:35:00,
2013-02-24 10:40:00,47.7,34.5,29.97,SSE,168,7.0,10.0,60,0.00,,CLR,0.00,655.50,VWS V14.01,2013-02-24 16:40:00,
2013-02-24 10:45:00,48.1,34.5,29.98,SSE,165,7.0,15.0,59,0.00,,CLR,0.00,664.70,VWS V14.01,2013-02-24 16:45:00,
2013-02-24 10:50:00,48.4,34.8,29.98,SSE,158,10.0,15.0,59,0.00,,CLR,0.00,677.35,VWS V14.01,2013-02-24 16:50:00,
2013-02-24 10:55:00,48.7,35.0,29.98,SSE,159,3.0,14.0,59,0.00,,CLR,0.00,687.70,VWS V14.01,2013-02-24 16:55:00,
2013-02-24 11:00:00,49.2,35.1,29.97,SSE,163,1.0,13.0,58,0.00,,CLR,0.00,695.75,VWS V14.01,2013-02-24 17:00:00,
2013-02-24 11:05:00,49.6,35.0,29.97,SSE,159,5.0,12.0,57,0.00,,CLR,0.00,707.25,VWS V14.01,2013-02-24 17:05:00,
2013-02-24 11:10:00,49.8,35.6,29.97,SSE,153,6.0,17.0,58,0.00,,CLR,0.00,714.15,VWS V14.01,2013-02-24 17:10:00,
2013-02-24 11:15:00,50.4,35.8,29.96,SSE,166,11.0,14.0,57,0.00,,CLR,0.00,719.90,VWS V14.01,2013-02-24 17:15:00,
2013-02-24 11:20:00,50.5,35.4,29.96,South,171,4.0,17.0,56,0.00,,CLR,0.00,725.65,VWS V14.01,2013-02-24 17:20:00,
2013-02-24 11:25:00,51.7,36.1,29.96,South,180,6.0,13.0,55,0.00,,CLR,0.00,738.30,VWS V14.01,2013-02-24 17:25:00,
2013-02-24 11:30:00,52.1,36.0,29.96,South,184,8.0,14.0,54,0.00,,CLR,0.00,741.75,VWS V14.01,2013-02-24 17:30:00,
2013-02-24 11:35:00,52.3,36.2,29.96,SSE,150,10.0,11.0,54,0.00,,CLR,0.00,747.50,VWS V14.01,2013-02-24 17:35:00,
2013-02-24 11:40:00,52.6,36.0,29.96,SSE,150,4.0,15.0,53,0.00,,CLR,0.00,757.85,VWS V14.01,2013-02-24 17:40:00,
2013-02-24 11:45:00,52.9,36.7,29.95,SSW,192,12.0,14.0,54,0.00,,CLR,0.00,760.15,VWS V14.01,2013-02-24 17:45:00,
2013-02-24 11:50:00,53.6,36.4,29.95,SSE,148,6.0,16.0,52,0.00,,CLR,0.00,762.45,VWS V14.01,2013-02-24 17:50:00,
2013-02-24 11:55:00,53.5,36.3,29.95,South,185,10.0,14.0,52,0.00,,CLR,0.00,765.90,VWS V14.01,2013-02-24 17:55:00,
2013-02-24 12:00:00,53.5,35.8,29.94,SSE,155,15.0,18.0,51,0.00,,CLR,0.00,768.20,VWS V14.01,2013-02-24 18:00:00,
2013-02-24 12:05:00,53.6,35.9,29.94,SW,214,9.0,18.0,51,0.00,,CLR,0.00,770.50,VWS V14.01,2013-02-24 18:05:00,
2013-02-24 12:10:00,53.2,35.6,29.94,SE,143,13.0,13.0,51,0.00,,CLR,0.00,771.65,VWS V14.01,2013-02-24 18:10:00,
2013-02-24 12:15:00,53.6,35.4,29.93,South,184,15.0,16.0,50,0.00,,CLR,0.00,771.65,VWS V14.01,2013-02-24 18:15:00,
2013-02-24 12:20:00,54.2,36.5,29.93,SSE,168,4.0,18.0,51,0.00,,CLR,0.00,770.50,VWS V14.01,2013-02-24 18:20:00,
2013-02-24 12:25:00,54.4,36.2,29.93,SSE,158,5.0,16.0,50,0.00,,CLR,0.00,771.65,VWS V14.01,2013-02-24 18:25:00,
2013-02-24 12:30:00,54.2,36.5,29.94,SSE,147,10.0,13.0,51,0.00,,CLR,0.00,770.50,VWS V14.01,2013-02-24 18:30:00,
2013-02-24 12:35:00,54.4,36.2,29.94,South,171,9.0,15.0,50,0.00,,CLR,0.00,771.65,VWS V14.01,2013-02-24 18:35:00,
2013-02-24 12:40:00,54.1,35.9,29.94,SE,139,3.0,15.0,50,0.00,,CLR,0.00,771.65,VWS V14.01,2013-02-24 18:40:00,
2013-02-24 12:45:00,54.7,36.4,29.92,SE,138,4.0,17.0,50,0.00,,CLR,0.00,768.20,VWS V14.01,2013-02-24 18:45:00,
2013-02-24 12:50:00,54.5,35.8,29.92,ESE,108,3.0,10.0,49,0.00,,CLR,0.00,765.90,VWS V14.01,2013-02-24 18:50:00,
2013-02-24 12:55:00,54.8,36.0,29.92,SE,136,12.0,19.0,49,0.00,,CLR,0.00,768.20,VWS V14.01,2013-02-24 18:55:00,
2013-02-24 13:00:00,55.7,37.4,29.91,SSE,154,5.0,13.0,50,0.00,,CLR,0.00,768.20,VWS V14.01,2013-02-24 19:00:00,
2013-02-24 13:05:00,56.3,36.9,29.91,ESE,123,5.0,14.0,48,0.00,,CLR,0.00,765.90,VWS V14.01,2013-02-24 19:05:00,
2013-02-24 13:10:00,55.7,36.3,29.91,SE,138,5.0,17.0,48,0.00,,CLR,0.00,757.85,VWS V14.01,2013-02-24 19:10:00,
2013-02-24 13:15:00,55.8,36.4,29.89,SE,145,2.0,12.0,48,0.00,,CLR,0.00,762.45,VWS V14.01,2013-02-24 19:15:00,
2013-02-24 13:20:00,56.3,36.9,29.89,South,178,10.0,19.0,48,0.00,,CLR,0.00,757.85,VWS V14.01,2013-02-24 19:20:00,
2013-02-24 13:25:00,57.1,37.1,29.89,SSE,152,1.0,14.0,47,0.00,,CLR,0.00,746.35,VWS V14.01,2013-02-24 19:25:00,
2013-02-24 13:30:00,56.9,36.3,29.89,SSW,206,13.0,14.0,46,0.00,,CLR,0.00,746.35,VWS V14.01,2013-02-24 19:30:00,
2013-02-24 13:35:00,57.1,36.5,29.89,SSE,150,4.0,16.0,46,0.00,,CLR,0.00,739.45,VWS V14.01,2013-02-24 19:35:00,
2013-02-24 13:40:00,56.8,36.3,29.89,South,177,7.0,19.0,46,0.00,,CLR,0.00,738.30,VWS V14.01,2013-02-24 19:40:00,
2013-02-24 13:45:00,57.2,36.1,29.88,SSE,157,2.0,14.0,45,0.00,,CLR,0.00,723.35,VWS V14.01,2013-02-24 19:45:00,
2013-02-24 13:50:00,57.2,36.6,29.88,SSE,147,15.0,17.0,46,0.00,,CLR,0.00,679.65,VWS V14.01,2013-02-24 19:50:00,
2013-02-24 13:55:00,57.4,36.2,29.88,SE,146,10.0,17.0,45,0.00,,CLR,0.00,704.95,VWS V14.01,2013-02-24 19:55:00,
2013-02-24 14:00:00,57.8,36.6,29.87,SE,146,8.0,19.0,45,0.00,,CLR,0.00,671.60,VWS V14.01,2013-02-24 20:00:00,
2013-02-24 14:05:00,57.2,37.2,29.87,SSE,150,1.0,11.0,47,0.00,,CLR,0.00,638.25,VWS V14.01,2013-02-24 20:05:00,
2013-02-24 14:10:00,57.4,37.3,29.87,SE,132,4.0,11.0,47,0.00,,CLR,0.00,634.80,VWS V14.01,2013-02-24 20:10:00,
2013-02-24 14:15:00,57.4,37.3,29.86,SE,126,3.0,14.0,47,0.00,,CLR,0.00,640.55,VWS V14.01,2013-02-24 20:15:00,
2013-02-24 14:20:00,57.7,37.6,29.86,SE,131,12.0,12.0,47,0.00,,CLR,0.00,647.45,VWS V14.01,2013-02-24 20:20:00,
2013-02-24 14:25:00,57.5,37.5,29.86,SE,130,10.0,13.0,47,0.00,,CLR,0.00,622.15,VWS V14.01,2013-02-24 20:25:00,
2013-02-24 14:30:00,57.1,37.6,29.85,SE,128,2.0,16.0,48,0.00,,CLR,0.00,622.15,VWS V14.01,2013-02-24 20:30:00,
2013-02-24 14:35:00,58.0,38.4,29.85,ESE,109,5.0,12.0,48,0.00,,CLR,0.00,629.05,VWS V14.01,2013-02-24 20:35:00,
2013-02-24 14:40:00,57.7,38.2,29.85,SE,139,6.0,17.0,48,0.00,,CLR,0.00,612.95,VWS V14.01,2013-02-24 20:40:00,
2013-02-24 14:45:00,57.2,37.7,29.84,SE,146,7.0,16.0,48,0.00,,CLR,0.00,616.40,VWS V14.01,2013-02-24 20:45:00,
2013-02-24 14:50:00,57.5,37.5,29.84,SE,132,4.0,14.0,47,0.00,,CLR,0.00,604.90,VWS V14.01,2013-02-24 20:50:00,
2013-02-24 14:55:00,57.4,37.9,29.84,SE,133,3.0,13.0,48,0.00,,CLR,0.00,586.50,VWS V14.01,2013-02-24 20:55:00,
2013-02-24 15:00:00,57.5,38.5,29.84,SSE,167,7.0,14.0,49,0.00,,CLR,0.00,576.15,VWS V14.01,2013-02-24 21:00:00,
2013-02-24 15:05:00,57.8,38.3,29.84,SE,141,3.0,17.0,48,0.00,,CLR,0.00,557.75,VWS V14.01,2013-02-24 21:05:00,
2013-02-24 15:10:00,56.9,38.0,29.84,SE,128,11.0,15.0,49,0.00,,CLR,0.00,546.25,VWS V14.01,2013-02-24 21:10:00,
2013-02-24 15:15:00,56.9,38.5,29.82,SE,131,2.0,16.0,50,0.00,,CLR,0.00,531.30,VWS V14.01,2013-02-24 21:15:00,
2013-02-24 15:20:00,57.1,38.1,29.82,SE,130,1.0,14.0,49,0.00,,CLR,0.00,517.50,VWS V14.01,2013-02-24 21:20:00,
2013-02-24 15:25:00,57.1,38.7,29.82,ESE,106,6.0,14.0,50,0.00,,CLR,0.00,503.70,VWS V14.01,2013-02-24 21:25:00,
2013-02-24 15:30:00,57.2,38.2,29.81,SE,133,2.0,18.0,49,0.00,,CLR,0.00,487.60,VWS V14.01,2013-02-24 21:30:00,
2013-02-24 15:35:00,57.4,38.4,29.81,SE,142,0.0,17.0,49,0.00,,CLR,0.00,472.65,VWS V14.01,2013-02-24 21:35:00,
2013-02-24 15:40:00,57.7,38.7,29.81,SSE,148,6.0,12.0,49,0.00,,CLR,0.00,458.85,VWS V14.01,2013-02-24 21:40:00,
2013-02-24 15:45:00,57.5,38.0,29.81,SE,136,1.0,12.0,48,0.00,,CLR,0.00,445.05,VWS V14.01,2013-02-24 21:45:00,
2013-02-24 15:50:00,57.5,38.0,29.81,SE,133,4.0,21.0,48,0.00,,CLR,0.00,428.95,VWS V14.01,2013-02-24 21:50:00,
2013-02-24 15:55:00,57.5,38.0,29.81,SE,127,0.0,14.0,48,0.00,,CLR,0.00,412.85,VWS V14.01,2013-02-24 21:55:00,
2013-02-24 16:00:00,57.8,38.3,29.80,ESE,115,1.0,12.0,48,0.00,,CLR,0.00,396.75,VWS V14.01,2013-02-24 22:00:00,
2013-02-24 16:05:00,57.8,37.7,29.80,SSE,147,7.0,14.0,47,0.00,,CLR,0.00,378.35,VWS V14.01,2013-02-24 22:05:00,
2013-02-24 16:10:00,57.8,37.2,29.80,ESE,113,10.0,14.0,46,0.00,,CLR,0.00,264.50,VWS V14.01,2013-02-24 22:10:00,
2013-02-24 16:15:00,57.8,37.2,29.80,SE,124,2.0,11.0,46,0.00,,CLR,0.00,343.85,VWS V14.01,2013-02-24 22:15:00,
2013-02-24 16:20:00,57.7,37.1,29.80,ESE,116,9.0,11.0,46,0.00,,CLR,0.00,280.60,VWS V14.01,2013-02-24 22:20:00,
2013-02-24 16:25:00,57.5,36.9,29.80,ESE,116,2.0,12.0,46,0.00,,CLR,0.00,71.30,VWS V14.01,2013-02-24 22:25:00,
2013-02-24 16:30:00,57.5,36.9,29.79,SE,132,5.0,14.0,46,0.00,,CLR,0.00,264.50,VWS V14.01,2013-02-24 22:30:00,
2013-02-24 16:35:00,57.4,36.2,29.79,ESE,105,5.0,13.0,45,0.00,,CLR,0.00,274.85,VWS V14.01,2013-02-24 22:35:00,
2013-02-24 16:40:00,57.4,36.2,29.79,SE,128,2.0,15.0,45,0.00,,CLR,0.00,258.75,VWS V14.01,2013-02-24 22:40:00,
2013-02-24 16:45:00,57.2,36.1,29.78,SE,142,11.0,19.0,45,0.00,,CLR,0.00,240.35,VWS V14.01,2013-02-24 22:45:00,
2013-02-24 16:50:00,57.1,36.0,29.78,ESE,121,5.0,15.0,45,0.00,,CLR,0.00,220.80,VWS V14.01,2013-02-24 22:50:00,
2013-02-24 16:55:00,57.1,36.0,29.78,SSE,150,8.0,12.0,45,0.00,,CLR,0.00,40.25,VWS V14.01,2013-02-24 22:55:00,
2013-02-24 17:00:00,57.1,36.0,29.79,SSE,165,2.0,14.0,45,0.00,,CLR,0.00,37.95,VWS V14.01,2013-02-24 23:00:00,
2013-02-24 17:05:00,57.1,36.0,29.79,SE,139,10.0,12.0,45,0.00,,CLR,0.00,36.80,VWS V14.01,2013-02-24 23:05:00,
2013-02-24 17:10:00,57.1,36.0,29.79,SE,124,0.0,9.0,45,0.00,,CLR,0.00,36.80,VWS V14.01,2013-02-24 23:10:00,
2013-02-24 17:15:00,57.1,36.0,29.79,South,173,0.0,13.0,45,0.00,,CLR,0.00,34.50,VWS V14.01,2013-02-24 23:15:00,
2013-02-24 17:20:00,56.9,35.8,29.79,SSE,147,0.0,9.0,45,0.00,,CLR,0.00,32.20,VWS V14.01,2013-02-24 23:20:00,
2013-02-24 17:25:00,56.9,35.8,29.79,SE,142,0.0,11.0,45,0.00,,CLR,0.00,29.90,VWS V14.01,2013-02-24 23:25:00,
2013-02-24 17:30:00,56.8,36.3,29.80,SE,140,2.0,12.0,46,0.00,,CLR,0.00,29.90,VWS V14.01,2013-02-24 23:30:00,
2013-02-24 17:35:00,56.8,36.3,29.80,SE,143,0.0,7.0,46,0.00,,CLR,0.00,74.75,VWS V14.01,2013-02-24 23:35:00,
2013-02-24 17:40:00,56.6,36.1,29.80,ESE,123,0.0,11.0,46,0.00,,CLR,0.00,58.65,VWS V14.01,2013-02-24 23:40:00,
2013-02-24 17:45:00,56.5,36.0,29.80,SE,139,2.0,10.0,46,0.00,,CLR,0.00,44.85,VWS V14.01,2013-02-24 23:45:00,
2013-02-24 17:50:00,56.3,35.8,29.80,SE,133,0.0,5.0,46,0.00,,CLR,0.00,28.75,VWS V14.01,2013-02-24 23:50:00,
2013-02-24 17:55:00,56.0,35.5,29.80,SE,143,6.0,14.0,46,0.00,,CLR,0.00,20.70,VWS V14.01,2013-02-24 23:55:00,
2013-02-24 18:00:00,55.8,35.3,29.80,SE,144,0.0,5.0,46,0.00,,CLR,0.00,13.80,VWS V14.01,2013-02-25 00:00:00,
2013-02-24 18:04:00,55.7,35.8,29.80,SE,137,2.0,5.0,47,0.00,,CLR,0.00,10.35,VWS V14.01,2013-02-25 00:04:00,
2013-02-24 18:09:00,55.4,35.5,29.80,SE,128,0.0,3.0,47,0.00,,CLR,0.00,5.75,VWS V14.01,2013-02-25 00:09:00,
2013-02-24 18:14:00,55.1,35.8,29.80,SE,143,0.0,10.0,48,0.00,,CLR,0.00,0.00,VWS V14.01,2013-02-25 00:14:00,
2013-02-24 18:19:00,54.8,35.5,29.80,SE,138,0.0,6.0,48,0.00,,CLR,0.00,0.00,VWS V14.01,2013-02-25 00:19:00,
2013-02-24 18:24:00,54.7,35.4,29.80,SE,136,0.0,0.0,48,0.00,,CLR,0.00,0.00,VWS V14.01,2013-02-25 00:24:00,
2013-02-24 18:29:00,54.4,35.7,29.80,SE,138,6.0,6.0,49,0.00,,CLR,0.00,0.00,VWS V14.01,2013-02-25 00:29:00,
2013-02-24 18:34:00,54.1,35.4,29.80,SE,134,0.0,4.0,49,0.00,,CLR,0.00,0.00,VWS V14.01,2013-02-25 00:34:00,
2013-02-24 18:39:00,53.8,35.6,29.80,SE,129,0.0,4.0,50,0.00,,CLR,0.00,0.00,VWS V14.01,2013-02-25 00:39:00,
2013-02-24 18:44:00,53.6,35.4,29.81,SE,129,0.0,0.0,50,0.00,,CLR,0.00,0.00,VWS V14.01,2013-02-25 00:44:00,
2013-02-24 18:49:00,53.3,35.7,29.81,SE,130,0.0,4.0,51,0.00,,CLR,0.00,0.00,VWS V14.01,2013-02-25 00:49:00,
2013-02-24 18:54:00,53.2,35.6,29.81,SE,128,0.0,4.0,51,0.00,,CLR,0.00,0.00,VWS V14.01,2013-02-25 00:54:00,
2013-02-24 18:59:00,52.9,35.8,29.82,SE,127,0.0,1.0,52,0.00,,CLR,0.00,0.00,VWS V14.01,2013-02-25 00:59:00,
2013-02-24 19:04:00,52.7,35.6,29.82,SE,128,0.0,4.0,52,0.00,,CLR,0.00,0.00,VWS V14.01,2013-02-25 01:04:00,
2013-02-24 19:09:00,52.4,35.3,29.82,SE,128,0.0,4.0,52,0.00,,CLR,0.00,0.00,VWS V14.01,2013-02-25 01:09:00,
2013-02-24 19:14:00,52.3,35.7,29.82,SE,127,0.0,3.0,53,0.00,,CLR,0.00,0.00,VWS V14.01,2013-02-25 01:14:00,
2013-02-24 19:19:00,52.0,35.4,29.82,SE,127,0.0,6.0,53,0.00,,CLR,0.00,0.00,VWS V14.01,2013-02-25 01:19:00,
2013-02-24 19:24:00,51.8,35.2,29.82,SE,128,0.0,0.0,53,0.00,,CLR,0.00,0.00,VWS V14.01,2013-02-25 01:24:00,
2013-02-24 19:29:00,51.7,35.6,29.83,SE,128,0.0,0.0,54,0.00,,CLR,0.00,0.00,VWS V14.01,2013-02-25 01:29:00,
2013-02-24 19:34:00,51.4,35.3,29.83,SE,128,0.0,0.0,54,0.00,,CLR,0.00,0.00,VWS V14.01,2013-02-25 01:34:00,
2013-02-24 19:39:00,51.3,35.7,29.83,SE,128,0.0,0.0,55,0.00,,CLR,0.00,0.00,VWS V14.01,2013-02-25 01:39:00,
2013-02-24 19:44:00,51.1,35.5,29.83,SE,128,0.0,3.0,55,0.00,,CLR,0.00,0.00,VWS V14.01,2013-02-25 01:44:00,
2013-02-24 19:49:00,51.0,35.4,29.83,SE,128,0.0,3.0,55,0.00,,CLR,0.00,0.00,VWS V14.01,2013-02-25 01:49:00,
2013-02-24 19:54:00,50.7,35.6,29.83,SE,132,0.0,5.0,56,0.00,,CLR,0.00,0.00,VWS V14.01,2013-02-25 01:54:00,
2013-02-24 19:59:00,50.5,35.4,29.83,SE,127,0.0,7.0,56,0.00,,CLR,0.00,0.00,VWS V14.01,2013-02-25 01:59:00,
2013-02-24 20:04:00,50.5,35.4,29.83,ESE,119,4.0,5.0,56,0.00,,CLR,0.00,0.00,VWS V14.01,2013-02-25 02:04:00,
2013-02-24 20:09:00,50.4,35.3,29.83,ESE,121,1.0,5.0,56,0.00,,CLR,0.00,0.00,VWS V14.01,2013-02-25 02:09:00,
2013-02-24 20:14:00,50.2,35.1,29.82,ESE,122,1.0,3.0,56,0.00,,CLR,0.00,0.00,VWS V14.01,2013-02-25 02:14:00,
2013-02-24 20:19:00,50.2,35.6,29.82,ESE,122,0.0,0.0,57,0.00,,CLR,0.00,0.00,VWS V14.01,2013-02-25 02:19:00,
2013-02-24 20:24:00,50.1,35.5,29.82,ESE,122,0.0,0.0,57,0.00,,CLR,0.00,0.00,VWS V14.01,2013-02-25 02:24:00,
2013-02-24 20:29:00,49.8,35.2,29.83,ESE,122,0.0,0.0,57,0.00,,CLR,0.00,0.00,VWS V14.01,2013-02-25 02:29:00,
2013-02-24 20:34:00,49.6,35.0,29.83,ESE,122,0.0,1.0,57,0.00,,CLR,0.00,0.00,VWS V14.01,2013-02-25 02:34:00,
2013-02-24 20:39:00,49.3,34.7,29.83,ESE,122,0.0,0.0,57,0.00,,CLR,0.00,0.00,VWS V14.01,2013-02-25 02:39:00,
2013-02-24 20:44:00,49.2,34.6,29.83,ESE,122,0.0,0.0,57,0.00,,CLR,0.00,0.00,VWS V14.01,2013-02-25 02:44:00,
2013-02-24 20:49:00,48.9,34.8,29.83,ESE,122,0.0,4.0,58,0.00,,CLR,0.00,0.00,VWS V14.01,2013-02-25 02:49:00,
2013-02-24 20:54:00,48.6,34.9,29.83,ESE,122,0.0,0.0,59,0.00,,CLR,0.00,0.00,VWS V14.01,2013-02-25 02:54:00,
2013-02-24 20:59:00,48.4,34.8,29.84,ESE,122,0.0,0.0,59,0.00,,CLR,0.00,0.00,VWS V14.01,2013-02-25 02:59:00,
2013-02-24 21:04:00,48.3,34.7,29.84,ESE,122,0.0,0.0,59,0.00,,CLR,0.00,0.00,VWS V14.01,2013-02-25 03:04:00,
2013-02-24 21:09:00,48.1,34.5,29.84,ESE,122,0.0,0.0,59,0.00,,CLR,0.00,0.00,VWS V14.01,2013-02-25 03:09:00,
2013-02-24 21:14:00,48.0,34.4,29.84,ESE,122,0.0,0.0,59,0.00,,CLR,0.00,0.00,VWS V14.01,2013-02-25 03:14:00,
2013-02-24 21:19:00,47.9,34.7,29.84,ESE,122,0.0,0.0,60,0.00,,CLR,0.00,0.00,VWS V14.01,2013-02-25 03:19:00,
2013-02-24 21:24:00,47.6,34.4,29.84,ESE,122,0.0,0.0,60,0.00,,CLR,0.00,0.00,VWS V14.01,2013-02-25 03:24:00,
2013-02-24 21:29:00,47.4,34.2,29.85,ESE,122,0.0,0.0,60,0.00,,CLR,0.00,0.00,VWS V14.01,2013-02-25 03:29:00,
2013-02-24 21:34:00,47.1,33.9,29.85,ESE,122,0.0,0.0,60,0.00,,CLR,0.00,0.00,VWS V14.01,2013-02-25 03:34:00,
2013-02-24 21:39:00,47.0,34.3,29.85,ESE,122,0.0,0.0,61,0.00,,CLR,0.00,0.00,VWS V14.01,2013-02-25 03:39:00,
2013-02-24 21:44:00,46.7,34.0,29.84,ESE,122,0.0,0.0,61,0.00,,CLR,0.00,0.00,VWS V14.01,2013-02-25 03:44:00,
2013-02-24 21:49:00,46.5,33.8,29.84,ESE,122,0.0,0.0,61,0.00,,CLR,0.00,0.00,VWS V14.01,2013-02-25 03:49:00,
2013-02-24 21:54:00,46.2,33.5,29.84,ESE,122,0.0,0.0,61,0.00,,CLR,0.00,0.00,VWS V14.01,2013-02-25 03:54:00,
2013-02-24 21:59:00,45.9,33.6,29.84,ESE,122,0.0,0.0,62,0.00,,CLR,0.00,0.00,VWS V14.01,2013-02-25 03:59:00,
2013-02-24 22:04:00,45.6,33.8,29.84,ESE,122,0.0,1.0,63,0.00,,CLR,0.00,0.00,VWS V14.01,2013-02-25 04:04:00,
2013-02-24 22:09:00,45.3,33.9,29.84,ESE,122,0.0,0.0,64,0.00,,CLR,0.00,0.00,VWS V14.01,2013-02-25 04:09:00,
2013-02-24 22:14:00,45.0,33.6,29.85,ESE,122,0.0,0.0,64,0.00,,CLR,0.00,0.00,VWS V14.01,2013-02-25 04:14:00,
2013-02-24 22:19:00,44.9,33.9,29.85,ESE,122,0.0,0.0,65,0.00,,CLR,0.00,0.00,VWS V14.01,2013-02-25 04:19:00,
2013-02-24 22:24:00,44.7,33.7,29.85,ESE,122,0.0,0.0,65,0.00,,CLR,0.00,0.00,VWS V14.01,2013-02-25 04:24:00,
2013-02-24 22:29:00,44.5,33.9,29.84,ESE,122,0.0,0.0,66,0.00,,CLR,0.00,0.00,VWS V14.01,2013-02-25 04:29:00,
2013-02-24 22:34:00,44.3,33.7,29.84,ESE,122,0.0,0.0,66,0.00,,CLR,0.00,0.00,VWS V14.01,2013-02-25 04:34:00,
2013-02-24 22:39:00,44.2,33.6,29.84,ESE,122,0.0,0.0,66,0.00,,CLR,0.00,0.00,VWS V14.01,2013-02-25 04:39:00,
2013-02-24 22:44:00,44.0,33.4,29.85,ESE,122,0.0,0.0,66,0.00,,CLR,0.00,0.00,VWS V14.01,2013-02-25 04:44:00,
2013-02-24 22:49:00,43.9,33.7,29.85,ESE,122,0.0,0.0,67,0.00,,CLR,0.00,0.00,VWS V14.01,2013-02-25 04:49:00,
2013-02-24 22:54:00,43.7,33.5,29.85,ESE,122,0.0,0.0,67,0.00,,CLR,0.00,0.00,VWS V14.01,2013-02-25 04:54:00,
2013-02-24 22:59:00,43.6,33.8,29.84,ESE,122,0.0,0.0,68,0.00,,CLR,0.00,0.00,VWS V14.01,2013-02-25 04:59:00,
2013-02-24 23:00:00,43.6,33.8,29.84,ESE,122,0.0,0.0,68,0.00,,CLR,0.00,0.00,VWS V14.01,2013-02-25 05:00:00,
2013-02-24 23:05:00,43.4,33.6,29.84,ESE,122,0.0,0.0,68,0.00,,CLR,0.00,0.00,VWS V14.01,2013-02-25 05:05:00,
2013-02-24 23:10:00,43.3,33.5,29.84,ESE,122,0.0,0.0,68,0.00,,CLR,0.00,0.00,VWS V14.01,2013-02-25 05:10:00,
2013-02-24 23:15:00,43.1,33.6,29.83,ESE,122,0.0,0.0,69,0.00,,CLR,0.00,0.00,VWS V14.01,2013-02-25 05:15:00,
2013-02-24 23:20:00,43.0,33.5,29.83,ESE,122,0.0,0.0,69,0.00,,CLR,0.00,0.00,VWS V14.01,2013-02-25 05:20:00,
2013-02-24 23:25:00,43.0,33.5,29.83,ESE,122,0.0,0.0,69,0.00,,CLR,0.00,0.00,VWS V14.01,2013-02-25 05:25:00,
2013-02-24 23:30:00,42.8,33.3,29.83,ESE,122,0.0,0.0,69,0.00,,CLR,0.00,0.00,VWS V14.01,2013-02-25 05:30:00,
2013-02-24 23:35:00,42.8,33.3,29.83,ESE,122,0.0,0.0,69,0.00,,CLR,0.00,0.00,VWS V14.01,2013-02-25 05:35:00,
2013-02-24 23:40:00,42.8,33.3,29.83,ESE,122,2.0,3.0,69,0.00,,CLR,0.00,0.00,VWS V14.01,2013-02-25 05:40:00,
2013-02-24 23:45:00,42.8,33.3,29.84,ESE,122,0.0,0.0,69,0.00,,CLR,0.00,0.00,VWS V14.01,2013-02-25 05:45:00,
2013-02-24 23:50:00,42.8,33.3,29.84,ESE,122,0.0,0.0,69,0.00,,CLR,0.00,0.00,VWS V14.01,2013-02-25 05:50:00,
2013-02-24 23:55:00,42.8,33.3,29.84,ESE,122,0.0,0.0,69,0.00,,CLR,0.00,0.00,VWS V14.01,2013-02-25 05:55:00,